Latest Weather Observations for Bairnsdale

IDV60801

Issued at 4:32 pm EDT Wednesday 18 January 2017 (issued every 30 minutes, with the page automatically refreshed every 10 minutes)

About weather observations | Map of weather stations | Latest weather observations for VIC | Other Formats
Station Details ID: 085279 Name: BAIRNSDALE AIRPORT Lat: -37.88 Lon: 147.57 Height: 49.4 m
Data from the previous 72 hours. | See also: Recent months at Bairnsdale
Date/Time
EDT
Temp
°C
App
Temp
°C
Dew
Point
°C
Rel
Hum
%
Delta-T
°C
Wind Press
QNH
hPa
Press
MSL
hPa
Rain since
9am
mm
Dir  Spd
km/h
Gust
km/h
Spd
kts
Gust
kts
18/04:30pm 22.3 15.7 8.4 41 7.4 S 33 44 18 24 1013.4 1013.2 0.0
18/04:00pm 21.8 14.6 9.3 45 6.7 S 37 48 20 26 1013.5 1013.3 0.0
18/03:30pm 22.7 16.0 9.5 43 7.1 S 35 46 19 25 1013.4 1013.2 0.0
18/03:00pm 22.2 15.9 9.7 45 6.8 S 33 44 18 24 1013.4 1013.2 0.0
18/02:30pm 22.3 17.0 11.1 49 6.2 S 30 41 16 22 1013.3 1013.1 0.0
18/02:13pm 21.6 15.8 10.7 50 6.0 S 32 50 17 27 1013.2 1013.0 0.0
18/02:00pm 23.3 18.6 10.7 45 7.0 SW 26 39 14 21 1013.2 1013.0 0.0
18/01:30pm 24.9 19.8 6.1 30 9.7 WSW 22 44 12 24 1012.8 1012.6 0.0
18/01:00pm 24.0 19.7 9.2 39 8.0 WSW 22 35 12 19 1012.8 1012.6 0.0
18/12:30pm 21.8 17.0 9.0 44 6.8 WSW 24 33 13 18 1012.8 1012.6 0.0
18/12:00pm 20.8 16.5 9.4 48 6.1 WSW 22 32 12 17 1012.6 1012.4 0.0
18/11:30am 19.8 16.2 10.0 53 5.3 WSW 19 35 10 19 1012.6 1012.4 0.0
18/11:00am 19.6 15.2 10.3 55 5.0 SW 24 32 13 17 1012.5 1012.3 0.0
18/10:30am 18.7 14.3 10.5 59 4.4 SSW 24 37 13 20 1012.3 1012.1 0.0
18/10:00am 18.6 14.1 11.4 63 3.9 SW 26 41 14 22 1012.0 1011.8 0.0
18/09:30am 17.5 12.0 11.8 69 3.1 SW 32 41 17 22 1011.6 1011.4 0.0
18/09:00am 17.7 12.4 12.4 71 2.9 SSW 32 43 17 23 1011.2 1011.0 0.0
18/08:30am 18.3 13.3 12.3 68 3.3 SW 30 41 16 22 1010.4 1010.2 0.0
18/08:00am 18.4 13.1 12.6 69 3.2 SW 32 43 17 23 1009.6 1009.4 0.0
18/07:30am 19.3 15.8 14.6 74 2.7 SSW 26 35 14 19 1008.6 1008.4 0.0
18/07:00am 20.5 17.2 11.7 57 4.9 SW 20 26 11 14 1007.8 1007.7 0.0
18/06:30am 20.6 17.1 11.0 54 5.3 SSW 20 28 11 15 1007.0 1006.9 0.0
18/06:22am 20.5 16.2 10.9 54 5.3 S 24 32 13 17 1007.0 1006.9 0.0
18/06:00am 20.3 17.8 11.2 56 5.0 N 15 24 8 13 1005.0 1004.9 0.0
18/05:30am 19.5 17.8 11.3 59 4.5 N 11 15 6 8 1006.1 1006.0 0.0
18/05:00am 20.7 18.8 10.5 52 5.6 W 11 13 6 7 1007.1 1007.0 0.0
18/04:30am 21.4 18.4 10.6 50 5.9 WSW 17 22 9 12 1007.6 1007.5 0.0
18/04:00am 20.2 17.9 11.7 58 4.7 WNW 15 20 8 11 1007.6 1007.5 0.0
18/03:30am 18.6 17.0 12.8 69 3.3 WNW 13 17 7 9 1007.5 1007.4 0.0
18/03:00am 17.6 16.6 12.3 71 2.9 NW 9 13 5 7 1007.6 1007.5 0.0
18/02:30am 19.0 18.1 12.7 67 3.5 WNW 9 13 5 7 1007.7 1007.6 0.0
18/02:00am 19.0 18.3 13.2 69 3.3 SW 9 11 5 6 1008.1 1008.0 0.0
18/01:30am 20.3 19.1 14.0 67 3.6 SW 13 17 7 9 1008.3 1008.2 0.0
18/01:00am 22.0 20.1 14.1 61 4.6 SSW 17 22 9 12 1008.5 1008.3 0.0
18/12:30am 23.5 20.3 11.9 48 6.6 SSW 20 26 11 14 1008.2 1008.1 0.0
18/12:00am 22.1 19.7 12.6 55 5.4 SSW 17 19 9 10 1007.9 1007.8 0.0
 
Date/Time
EDT
Temp
°C
App
Temp
°C
Dew
Point
°C
Rel
Hum
%
Delta-T
°C
Wind Press
QNH
hPa
Press
MSL
hPa
Rain since
9am
mm
Dir  Spd
km/h
Gust
km/h
Spd
kts
Gust
kts
17/11:30pm 22.3 19.6 11.7 51 5.9 SSW 17 19 9 10 1007.7 1007.6 0.0
17/11:00pm 23.2 21.3 10.6 45 7.0 S 11 13 6 7 1007.3 1007.2 0.0
17/10:30pm 25.3 23.4 10.4 39 8.3 SE 11 13 6 7 1006.8 1006.7 0.0
17/10:00pm 25.5 23.5 10.1 38 8.6 ESE 11 11 6 6 1006.7 1006.6 0.0
17/09:30pm 26.1 24.0 9.9 36 9.0 E 11 13 6 7 1006.4 1006.3 0.0
17/09:00pm 26.9 23.9 9.3 33 9.7 E 15 17 8 9 1006.2 1006.1 0.0
17/08:30pm 27.2 24.5 9.1 32 10.0 ESE 13 15 7 8 1006.2 1006.1 0.0
17/08:00pm 28.5 25.9 9.2 30 10.7 E 13 17 7 9 1006.1 1006.0 0.0
17/07:30pm 29.5 25.9 8.5 27 11.6 ESE 17 22 9 12 1006.1 1006.0 0.0
17/07:00pm 29.8 25.6 8.2 26 11.9 E 20 24 11 13 1006.2 1006.1 0.0
17/06:30pm 30.6 26.6 8.3 25 12.3 ENE 19 22 10 12 1006.2 1006.1 0.0
17/06:00pm 30.6 27.4 10.0 28 11.7 ENE 17 24 9 13 1006.3 1006.2 0.0
17/05:30pm 31.2 28.1 8.8 25 12.5 E 15 24 8 13 1006.3 1006.2 0.0
17/05:00pm 32.4 27.4 8.0 22 13.6 SSE 24 33 13 18 1006.2 1006.1 0.0
17/04:30pm 31.5 26.1 7.9 23 13.0 SE 26 35 14 19 1006.3 1006.2 0.0
17/04:00pm 32.7 26.9 9.5 24 13.2 SSE 30 39 16 21 1006.5 1006.4 0.0
17/03:30pm 31.4 26.3 10.7 28 11.9 SSE 28 35 15 19 1006.6 1006.5 0.0
17/03:00pm 32.0 27.1 11.2 28 12.1 SE 28 37 15 20 1006.8 1006.7 0.0
17/02:30pm 33.9 30.5 11.1 25 13.4 ESE 20 26 11 14 1006.2 1006.1 0.0
17/02:00pm 33.4 29.8 10.7 25 13.2 SE 20 28 11 15 1006.1 1006.0 0.0
17/01:30pm 32.5 28.3 11.1 27 12.5 SE 24 30 13 16 1006.4 1006.3 0.0
17/01:00pm 34.1 30.1 11.9 26 13.2 SE 24 35 13 19 1006.4 1006.3 0.0
17/12:57pm 33.8 30.3 11.0 25 13.3 SSE 20 35 11 19 1006.3 1006.2 0.0
17/12:30pm 39.1 33.8 1.9 10 19.4 NW 19 26 10 14 1006.5 1006.4 0.0
17/12:00pm 37.6 33.8 5.6 14 17.6 N 15 24 8 13 1006.9 1006.8 0.0
17/11:30am 33.6 32.0 10.2 24 13.5 S 9 15 5 8 1007.4 1007.3 0.0
17/11:00am 32.6 31.6 12.3 29 12.1 SSE 9 13 5 7 1007.8 1007.7 0.0
17/10:30am 30.7 28.0 13.5 35 10.3 S 20 30 11 16 1008.5 1008.3 0.0
17/10:00am 34.2 29.0 5.7 17 15.4 NW 22 32 12 17 1008.6 1008.4 0.0
17/09:30am 33.1 29.9 8.5 22 13.8 NNW 15 22 8 12 1008.6 1008.4 0.0
17/09:27am 32.4 29.1 8.0 22 13.5 NNW 15 20 8 11 1008.5 1008.3 0.0
17/09:00am 27.4 26.0 12.2 39 8.8 NNW 11 17 6 9 1008.7 1008.5 0.0
17/08:30am 22.5 22.6 15.6 65 4.1 N 9 11 5 6 1008.7 1008.5 -
17/08:00am 20.5 21.0 15.5 73 3.0 NNW 7 11 4 6 1008.7 1008.5 -
17/07:30am 17.3 17.3 15.3 88 1.2 NNW 9 11 5 6 1008.5 1008.3 -
17/07:00am 15.7 15.2 13.7 88 1.1 N 9 13 5 7 1008.1 1008.0 -
17/06:30am 14.7 15.5 13.7 94 0.6 S 2 9 1 5 1007.8 1007.7 -
17/06:00am 13.1 12.5 12.2 94 0.5 SSW 7 11 4 6 1007.8 1007.7 -
17/05:30am 12.9 11.8 12.0 94 0.5 SW 9 11 5 6 1007.6 1007.5 -
17/05:00am 14.4 14.2 13.6 95 0.4 SSW 7 15 4 8 1007.4 1007.3 -
17/04:30am 14.0 13.6 13.1 94 0.5 N 7 9 4 5 1007.2 1007.1 -
17/04:00am 15.0 15.1 14.5 97 0.3 NNW 7 9 4 5 1007.2 1007.1 -
17/03:30am 13.4 12.9 12.6 95 0.4 NW 7 7 4 4 1007.5 1007.4 -
17/03:21am 13.9 13.5 13.1 95 0.4 NW 7 9 4 5 1007.6 1007.5 -
17/03:00am 14.6 14.2 14.0 96 0.3 NNW 9 11 5 6 1007.7 1007.6 0.0
17/02:30am 14.5 13.9 13.5 94 0.6 NNW 9 11 5 6 1008.5 1008.3 -
17/02:00am 16.4 15.6 15.1 92 0.8 N 13 15 7 8 1008.8 1008.6 -
17/01:30am 15.0 14.8 13.7 92 0.7 NNW 7 9 4 5 1009.5 1009.3 -
17/01:00am 16.4 16.9 14.9 91 0.9 N 6 7 3 4 1010.0 1009.8 -
17/12:30am 17.1 17.2 15.6 91 0.9 NE 9 11 5 6 1010.2 1010.0 -
17/12:00am 17.3 17.9 15.8 91 0.9 ENE 7 11 4 6 1010.8 1010.6 -
 
Date/Time
EDT
Temp
°C
App
Temp
°C
Dew
Point
°C
Rel
Hum
%
Delta-T
°C
Wind Press
QNH
hPa
Press
MSL
hPa
Rain since
9am
mm
Dir  Spd
km/h
Gust
km/h
Spd
kts
Gust
kts
16/11:30pm 17.0 16.6 15.3 90 1.0 ENE 11 15 6 8 1011.1 1010.9 -
16/11:00pm 17.5 17.7 15.7 89 1.1 ENE 9 13 5 7 1011.7 1011.5 -
16/10:30pm 18.3 18.7 16.3 88 1.2 ENE 9 11 5 6 1012.3 1012.1 -
16/10:00pm 18.1 18.2 15.5 85 1.5 E 9 11 5 6 1012.6 1012.4 -
16/09:30pm 18.1 17.7 15.2 83 1.7 E 11 17 6 9 1012.8 1012.6 -
16/09:00pm 18.2 17.4 15.1 82 1.8 ESE 13 17 7 9 1012.7 1012.5 0.0
16/08:30pm 18.4 16.8 15.1 81 1.9 ESE 17 24 9 13 1012.2 1012.0 -
16/08:00pm 19.4 17.8 14.9 75 2.6 ESE 17 20 9 11 1012.4 1012.2 -
16/07:30pm 21.3 19.4 14.2 64 4.1 ESE 17 24 9 13 1012.2 1012.0 -
16/07:00pm 21.8 19.4 13.9 61 4.6 ESE 19 24 10 13 1012.2 1012.0 -
16/06:30pm 22.0 19.5 13.6 59 4.9 ESE 19 24 10 13 1012.3 1012.1 -
16/06:00pm 22.9 20.9 13.9 57 5.3 ESE 17 24 9 13 1012.3 1012.1 -
16/05:30pm 22.7 20.3 13.7 56 5.2 ESE 19 24 10 13 1012.3 1012.1 -
16/05:00pm 22.8 19.8 13.8 57 5.3 ESE 22 30 12 16 1012.5 1012.3 -
16/04:30pm 22.5 19.5 13.6 57 5.2 SE 22 28 12 15 1012.6 1012.4 -
16/04:00pm 23.2 20.4 13.1 53 5.8 SE 20 24 11 13 1012.7 1012.5 -
16/03:30pm 24.2 21.6 13.7 52 6.2 SE 20 28 11 15 1012.9 1012.7 -
16/03:00pm 24.2 22.6 14.0 53 6.0 E 15 22 8 12 1013.1 1012.9 0.0
16/02:30pm 23.7 21.8 13.0 51 6.2 E 15 22 8 12 1013.2 1013.0 -
16/02:00pm 23.6 21.4 13.2 52 6.0 ESE 17 24 9 13 1013.5 1013.3 -
16/01:30pm 23.7 21.9 13.3 52 6.0 ESE 15 20 8 11 1014.0 1013.8 -
16/01:00pm 23.5 20.9 13.1 52 6.0 ESE 19 28 10 15 1014.3 1014.1 -
16/12:30pm 23.8 22.7 12.1 48 6.7 E 9 19 5 10 1014.2 1014.0 -
16/12:00pm 23.0 22.7 11.4 48 6.5 SE 4 7 2 4 1014.7 1014.5 -
16/11:30am 22.2 21.4 11.6 51 5.9 W 7 13 4 7 1015.0 1014.8 -
16/11:00am 20.9 19.7 11.5 55 5.2 N 9 15 5 8 1015.4 1015.2 -
16/10:30am 20.3 19.2 12.0 59 4.6 ESE 9 17 5 9 1015.8 1015.7 -
16/10:00am 19.1 18.2 11.2 60 4.3 ESE 7 11 4 6 1016.0 1015.9 -
16/09:30am 18.3 17.3 10.9 62 4.0 NE 7 13 4 7 1016.3 1016.2 0.0
16/09:00am 17.2 16.3 11.2 68 3.2 NNE 7 11 4 6 1016.5 1016.4 0.0
16/08:30am 14.8 14.0 11.6 81 1.7 W 7 11 4 6 1016.7 1016.6 0.0
16/08:00am 13.0 11.8 11.7 92 0.7 WNW 9 11 5 6 1016.6 1016.5 0.0
16/07:30am 11.4 11.7 10.9 97 0.3 CALM 0 0 0 0 1016.3 1016.2 0.0
16/07:00am 9.6 9.4 9.0 96 0.3 CALM 0 0 0 0 1016.1 1016.0 0.0
16/06:30am 8.7 7.5 8.1 96 0.3 WNW 4 7 2 4 1015.9 1015.8 0.0
16/06:29am 8.7 7.5 8.1 96 0.3 WNW 4 7 2 4 1015.9 1015.8 0.0
16/06:11am 8.5 8.0 7.9 96 0.3 CALM 0 7 0 4 1015.8 1015.7 0.0
16/06:02am 9.3 8.6 8.7 96 0.3 W 2 6 1 3 1015.7 1015.5 0.0
16/06:00am 9.0 7.9 8.4 96 0.3 W 4 6 2 3 1015.7 1015.5 0.0
16/05:30am 8.6 7.0 8.0 96 0.3 SW 6 7 3 4 1015.6 1015.4 0.0
16/05:00am 8.7 6.9 7.9 95 0.4 SW 7 9 4 5 1015.6 1015.4 0.0
16/04:30am 9.6 8.0 8.8 95 0.4 NW 7 9 4 5 1015.4 1015.2 0.0
16/04:00am 10.2 8.8 9.4 95 0.4 NW 7 9 4 5 1015.3 1015.1 0.0
16/03:30am 9.5 9.2 8.6 94 0.4 CALM 0 7 0 4 1015.6 1015.4 0.0
16/03:00am 10.5 10.5 9.7 95 0.4 CALM 0 0 0 0 1015.7 1015.5 0.0
16/02:30am 10.5 10.5 9.7 95 0.4 CALM 0 0 0 0 1015.9 1015.8 0.0
16/02:00am 10.3 10.2 9.4 94 0.4 CALM 0 0 0 0 1016.3 1016.2 0.0
16/01:30am 10.1 9.8 8.5 90 0.8 CALM 0 4 0 2 1016.6 1016.5 0.0
16/01:00am 13.1 11.9 10.3 83 1.5 NNE 7 7 4 4 1016.9 1016.8 0.0
16/12:30am 13.2 12.1 10.6 84 1.4 NE 7 9 4 5 1017.1 1017.0 0.0
16/12:00am 13.3 11.8 10.5 83 1.5 NE 9 11 5 6 1017.1 1017.0 0.0
 
Date/Time
EDT
Temp
°C
App
Temp
°C
Dew
Point
°C
Rel
Hum
%
Delta-T
°C
Wind Press
QNH
hPa
Press
MSL
hPa
Rain since
9am
mm
Dir  Spd
km/h
Gust
km/h
Spd
kts
Gust
kts
15/11:30pm 14.3 12.9 10.9 80 1.8 NE 9 11 5 6 1017.4 1017.3 0.0
15/11:00pm 14.6 13.2 10.8 78 2.0 NE 9 11 5 6 1017.7 1017.6 0.0
15/10:30pm 15.2 14.1 10.6 74 2.4 E 7 9 4 5 1018.0 1017.9 0.0
15/10:00pm 16.0 15.0 11.0 72 2.7 ENE 7 9 4 5 1017.8 1017.7 0.0
15/09:30pm 16.8 15.8 11.1 69 3.1 E 7 9 4 5 1018.0 1017.9 0.0
15/09:00pm 16.9 16.0 11.2 69 3.1 ESE 7 9 4 5 1018.1 1018.0 0.0
15/08:30pm 17.0 15.2 10.8 67 3.3 SE 11 15 6 8 1018.1 1018.0 0.0
15/08:00pm 17.7 15.1 10.6 63 3.8 SSE 15 20 8 11 1017.6 1017.5 0.0
15/07:30pm 18.2 15.2 10.6 61 4.1 SE 17 24 9 13 1017.5 1017.4 0.0
15/07:00pm 18.5 15.3 11.1 62 4.0 SE 19 24 10 13 1017.2 1017.1 0.0
15/06:30pm 19.2 15.6 10.7 58 4.6 SE 20 26 11 14 1016.9 1016.8 0.0
15/06:00pm 20.2 16.6 10.6 54 5.2 SSE 20 26 11 14 1016.8 1016.7 0.0
15/05:30pm 20.1 15.7 10.5 54 5.2 SSE 24 33 13 18 1016.5 1016.4 0.0
15/05:00pm 20.5 16.5 10.6 53 5.4 SSE 22 32 12 17 1016.5 1016.4 0.0

Other Formats:

Comma delimited format used in spreadsheet applications
http://www.bom.gov.au/fwo/IDV60801/IDV60801.94912.axf

JavaScript Object Notation format (JSON) in row-major order
http://www.bom.gov.au/fwo/IDV60801/IDV60801.94912.json